sensor_id;sensor_type;location;lat;lon;timestamp;temperature;humidity
62575;DHT22;53112;45.602;11.904;2023-03-01T00:02:01;5.70;53.50
62575;DHT22;53112;45.602;11.904;2023-03-01T00:04:27;5.90;52.70
62575;DHT22;53112;45.602;11.904;2023-03-01T00:06:53;5.90;52.50
62575;DHT22;53112;45.602;11.904;2023-03-01T00:09:19;6.00;52.40
62575;DHT22;53112;45.602;11.904;2023-03-01T00:11:45;6.10;52.40
62575;DHT22;53112;45.602;11.904;2023-03-01T00:14:11;6.10;52.20
62575;DHT22;53112;45.602;11.904;2023-03-01T00:16:39;6.10;52.20
62575;DHT22;53112;45.602;11.904;2023-03-01T00:19:09;6.10;52.00
62575;DHT22;53112;45.602;11.904;2023-03-01T00:21:35;6.10;51.80
62575;DHT22;53112;45.602;11.904;2023-03-01T00:24:01;6.10;51.90
62575;DHT22;53112;45.602;11.904;2023-03-01T00:26:27;6.10;51.80
62575;DHT22;53112;45.602;11.904;2023-03-01T00:28:53;6.10;51.90
62575;DHT22;53112;45.602;11.904;2023-03-01T00:31:22;6.00;52.50
62575;DHT22;53112;45.602;11.904;2023-03-01T00:33:50;6.00;52.70
62575;DHT22;53112;45.602;11.904;2023-03-01T00:36:17;5.90;52.30
62575;DHT22;53112;45.602;11.904;2023-03-01T00:38:45;5.90;52.50
62575;DHT22;53112;45.602;11.904;2023-03-01T00:41:13;5.90;52.60
62575;DHT22;53112;45.602;11.904;2023-03-01T00:43:40;5.80;53.10
62575;DHT22;53112;45.602;11.904;2023-03-01T00:46:08;5.80;53.10
62575;DHT22;53112;45.602;11.904;2023-03-01T00:48:35;5.80;53.40
62575;DHT22;53112;45.602;11.904;2023-03-01T00:53:31;5.90;53.40
62575;DHT22;53112;45.602;11.904;2023-03-01T00:55:58;5.90;53.20
62575;DHT22;53112;45.602;11.904;2023-03-01T00:58:24;5.90;53.20
62575;DHT22;53112;45.602;11.904;2023-03-01T01:00:50;5.90;53.40
62575;DHT22;53112;45.602;11.904;2023-03-01T01:03:16;5.90;53.40
62575;DHT22;53112;45.602;11.904;2023-03-01T01:05:41;5.90;53.30
62575;DHT22;53112;45.602;11.904;2023-03-01T01:08:07;6.00;53.20
62575;DHT22;53112;45.602;11.904;2023-03-01T01:10:34;6.00;53.10
62575;DHT22;53112;45.602;11.904;2023-03-01T01:13:00;5.90;53.30
62575;DHT22;53112;45.602;11.904;2023-03-01T01:15:26;5.90;53.20
62575;DHT22;53112;45.602;11.904;2023-03-01T01:17:52;5.80;53.40
62575;DHT22;53112;45.602;11.904;2023-03-01T01:20:18;5.80;53.40
62575;DHT22;53112;45.602;11.904;2023-03-01T01:22:44;5.80;52.90
62575;DHT22;53112;45.602;11.904;2023-03-01T01:25:10;5.80;53.00
62575;DHT22;53112;45.602;11.904;2023-03-01T01:27:36;5.90;52.70
62575;DHT22;53112;45.602;11.904;2023-03-01T01:30:03;6.00;52.40
62575;DHT22;53112;45.602;11.904;2023-03-01T01:32:29;6.00;52.50
62575;DHT22;53112;45.602;11.904;2023-03-01T01:34:55;6.10;52.10
62575;DHT22;53112;45.602;11.904;2023-03-01T01:37:21;6.20;51.90
62575;DHT22;53112;45.602;11.904;2023-03-01T01:39:47;6.20;52.20
62575;DHT22;53112;45.602;11.904;2023-03-01T01:42:17;6.20;52.00
62575;DHT22;53112;45.602;11.904;2023-03-01T01:44:46;6.20;52.00
62575;DHT22;53112;45.602;11.904;2023-03-01T01:47:21;6.20;51.90
62575;DHT22;53112;45.602;11.904;2023-03-01T01:49:54;6.30;51.70
62575;DHT22;53112;45.602;11.904;2023-03-01T01:52:34;6.40;51.60
62575;DHT22;53112;45.602;11.904;2023-03-01T01:55:10;6.40;51.60
62575;DHT22;53112;45.602;11.904;2023-03-01T01:57:43;6.40;51.90
62575;DHT22;53112;45.602;11.904;2023-03-01T02:00:22;6.40;51.90
62575;DHT22;53112;45.602;11.904;2023-03-01T02:02:51;6.40;51.70
62575;DHT22;53112;45.602;11.904;2023-03-01T02:05:46;6.40;51.80
62575;DHT22;53112;45.602;11.904;2023-03-01T02:08:15;6.40;51.70
62575;DHT22;53112;45.602;11.904;2023-03-01T02:10:42;6.40;51.60
62575;DHT22;53112;45.602;11.904;2023-03-01T02:13:09;6.30;52.10
62575;DHT22;53112;45.602;11.904;2023-03-01T02:15:36;6.40;52.20
62575;DHT22;53112;45.602;11.904;2023-03-01T02:18:04;6.40;52.40
62575;DHT22;53112;45.602;11.904;2023-03-01T02:23:11;6.40;52.40
62575;DHT22;53112;45.602;11.904;2023-03-01T02:25:51;6.50;52.20
62575;DHT22;53112;45.602;11.904;2023-03-01T02:28:36;6.40;52.30
62575;DHT22;53112;45.602;11.904;2023-03-01T02:31:05;6.40;52.50
62575;DHT22;53112;45.602;11.904;2023-03-01T02:34:18;6.20;53.20
62575;DHT22;53112;45.602;11.904;2023-03-01T02:36:51;6.20;53.50
62575;DHT22;53112;45.602;11.904;2023-03-01T02:39:24;6.30;53.30
62575;DHT22;53112;45.602;11.904;2023-03-01T02:41:53;6.20;53.20
62575;DHT22;53112;45.602;11.904;2023-03-01T02:44:20;6.40;52.70
62575;DHT22;53112;45.602;11.904;2023-03-01T02:46:50;6.40;52.80
62575;DHT22;53112;45.602;11.904;2023-03-01T02:49:22;6.50;52.20
62575;DHT22;53112;45.602;11.904;2023-03-01T02:52:00;6.70;51.90
62575;DHT22;53112;45.602;11.904;2023-03-01T02:57:24;6.90;51.50
62575;DHT22;53112;45.602;11.904;2023-03-01T02:59:53;6.90;51.20
62575;DHT22;53112;45.602;11.904;2023-03-01T03:02:21;6.90;51.30
62575;DHT22;53112;45.602;11.904;2023-03-01T03:05:31;7.00;51.00
62575;DHT22;53112;45.602;11.904;2023-03-01T03:08:00;6.90;51.50
62575;DHT22;53112;45.602;11.904;2023-03-01T03:10:29;7.00;51.30
62575;DHT22;53112;45.602;11.904;2023-03-01T03:13:04;7.10;51.20
62575;DHT22;53112;45.602;11.904;2023-03-01T03:15:31;7.00;51.50
62575;DHT22;53112;45.602;11.904;2023-03-01T03:18:03;6.80;52.00
62575;DHT22;53112;45.602;11.904;2023-03-01T03:20:30;6.70;52.30
62575;DHT22;53112;45.602;11.904;2023-03-01T03:22:58;6.90;52.00
62575;DHT22;53112;45.602;11.904;2023-03-01T03:25:25;6.90;51.80
62575;DHT22;53112;45.602;11.904;2023-03-01T03:27:52;6.70;52.30
62575;DHT22;53112;45.602;11.904;2023-03-01T03:30:24;6.60;52.80
62575;DHT22;53112;45.602;11.904;2023-03-01T03:32:50;6.60;52.70
62575;DHT22;53112;45.602;11.904;2023-03-01T03:35:31;6.70;52.30
62575;DHT22;53112;45.602;11.904;2023-03-01T03:37:59;6.50;52.70
62575;DHT22;53112;45.602;11.904;2023-03-01T03:40:37;6.30;53.30
62575;DHT22;53112;45.602;11.904;2023-03-01T03:43:05;6.10;54.00
62575;DHT22;53112;45.602;11.904;2023-03-01T03:45:32;6.10;54.00
62575;DHT22;53112;45.602;11.904;2023-03-01T03:47:59;6.10;53.60
62575;DHT22;53112;45.602;11.904;2023-03-01T03:50:26;6.30;53.00
62575;DHT22;53112;45.602;11.904;2023-03-01T03:52:52;6.40;52.60
62575;DHT22;53112;45.602;11.904;2023-03-01T03:55:18;6.20;52.90
62575;DHT22;53112;45.602;11.904;2023-03-01T03:57:46;6.10;53.40
62575;DHT22;53112;45.602;11.904;2023-03-01T04:00:21;6.00;53.90
62575;DHT22;53112;45.602;11.904;2023-03-01T04:02:50;5.90;54.20
62575;DHT22;53112;45.602;11.904;2023-03-01T04:05:18;5.90;54.30
62575;DHT22;53112;45.602;11.904;2023-03-01T04:07:45;6.10;53.80
62575;DHT22;53112;45.602;11.904;2023-03-01T04:10:16;5.80;54.60
62575;DHT22;53112;45.602;11.904;2023-03-01T04:12:43;5.40;56.50
62575;DHT22;53112;45.602;11.904;2023-03-01T04:15:12;5.40;57.10
62575;DHT22;53112;45.602;11.904;2023-03-01T04:17:43;5.60;55.90
62575;DHT22;53112;45.602;11.904;2023-03-01T04:20:13;5.40;56.60
62575;DHT22;53112;45.602;11.904;2023-03-01T04:22:40;5.40;57.00
62575;DHT22;53112;45.602;11.904;2023-03-01T04:25:06;5.50;56.70
62575;DHT22;53112;45.602;11.904;2023-03-01T04:27:34;5.90;55.40
62575;DHT22;53112;45.602;11.904;2023-03-01T04:30:00;6.10;54.80
62575;DHT22;53112;45.602;11.904;2023-03-01T04:32:26;5.90;55.20
62575;DHT22;53112;45.602;11.904;2023-03-01T04:34:52;5.80;55.40
62575;DHT22;53112;45.602;11.904;2023-03-01T04:37:18;6.00;54.80
62575;DHT22;53112;45.602;11.904;2023-03-01T04:39:44;5.90;55.80
62575;DHT22;53112;45.602;11.904;2023-03-01T04:42:16;6.00;55.10
62575;DHT22;53112;45.602;11.904;2023-03-01T04:44:43;6.30;54.60
62575;DHT22;53112;45.602;11.904;2023-03-01T04:47:09;6.20;54.50
62575;DHT22;53112;45.602;11.904;2023-03-01T04:49:36;6.20;55.00
62575;DHT22;53112;45.602;11.904;2023-03-01T04:52:02;6.20;53.90
62575;DHT22;53112;45.602;11.904;2023-03-01T04:54:31;6.30;53.90
62575;DHT22;53112;45.602;11.904;2023-03-01T04:56:58;6.40;53.20
62575;DHT22;53112;45.602;11.904;2023-03-01T04:59:24;6.20;54.30
62575;DHT22;53112;45.602;11.904;2023-03-01T05:01:54;6.30;53.70
62575;DHT22;53112;45.602;11.904;2023-03-01T05:04:26;6.50;53.20
62575;DHT22;53112;45.602;11.904;2023-03-01T05:06:52;6.60;52.80
62575;DHT22;53112;45.602;11.904;2023-03-01T05:09:19;6.60;52.90
62575;DHT22;53112;45.602;11.904;2023-03-01T05:11:45;6.70;52.90
62575;DHT22;53112;45.602;11.904;2023-03-01T05:14:11;6.80;53.00
62575;DHT22;53112;45.602;11.904;2023-03-01T05:16:37;7.00;52.20
62575;DHT22;53112;45.602;11.904;2023-03-01T05:19:03;7.10;51.90
62575;DHT22;53112;45.602;11.904;2023-03-01T05:21:42;7.20;51.60
62575;DHT22;53112;45.602;11.904;2023-03-01T05:24:26;7.20;51.50
62575;DHT22;53112;45.602;11.904;2023-03-01T05:26:52;7.20;51.90
62575;DHT22;53112;45.602;11.904;2023-03-01T05:29:23;7.30;51.70
62575;DHT22;53112;45.602;11.904;2023-03-01T05:31:57;7.40;51.40
62575;DHT22;53112;45.602;11.904;2023-03-01T05:34:29;7.40;51.70
62575;DHT22;53112;45.602;11.904;2023-03-01T05:36:56;7.60;51.40
62575;DHT22;53112;45.602;11.904;2023-03-01T05:39:24;7.70;51.10
62575;DHT22;53112;45.602;11.904;2023-03-01T05:42:00;7.70;50.60
62575;DHT22;53112;45.602;11.904;2023-03-01T05:44:28;7.80;50.60
62575;DHT22;53112;45.602;11.904;2023-03-01T05:46:55;7.80;50.80
62575;DHT22;53112;45.602;11.904;2023-03-01T05:49:21;7.80;50.30
62575;DHT22;53112;45.602;11.904;2023-03-01T05:51:53;7.90;50.10
62575;DHT22;53112;45.602;11.904;2023-03-01T05:54:20;7.90;50.30
62575;DHT22;53112;45.602;11.904;2023-03-01T05:56:46;8.10;49.90
62575;DHT22;53112;45.602;11.904;2023-03-01T05:59:12;8.10;49.40
62575;DHT22;53112;45.602;11.904;2023-03-01T06:01:40;8.20;49.30
62575;DHT22;53112;45.602;11.904;2023-03-01T06:04:06;8.20;49.60
62575;DHT22;53112;45.602;11.904;2023-03-01T06:06:36;8.20;49.30
62575;DHT22;53112;45.602;11.904;2023-03-01T06:09:07;8.30;49.20
62575;DHT22;53112;45.602;11.904;2023-03-01T06:11:35;8.30;48.80
62575;DHT22;53112;45.602;11.904;2023-03-01T06:14:02;8.40;48.40
62575;DHT22;53112;45.602;11.904;2023-03-01T06:16:28;8.40;48.60
62575;DHT22;53112;45.602;11.904;2023-03-01T06:18:54;8.50;47.90
62575;DHT22;53112;45.602;11.904;2023-03-01T06:21:20;8.60;47.40
62575;DHT22;53112;45.602;11.904;2023-03-01T06:23:46;8.70;47.60
62575;DHT22;53112;45.602;11.904;2023-03-01T06:26:12;8.50;48.40
62575;DHT22;53112;45.602;11.904;2023-03-01T06:28:37;8.60;48.30
62575;DHT22;53112;45.602;11.904;2023-03-01T06:31:03;8.70;48.10
62575;DHT22;53112;45.602;11.904;2023-03-01T06:33:29;8.80;47.60
62575;DHT22;53112;45.602;11.904;2023-03-01T06:35:55;8.80;47.50
62575;DHT22;53112;45.602;11.904;2023-03-01T06:38:24;8.80;47.70
62575;DHT22;53112;45.602;11.904;2023-03-01T06:40:54;8.90;47.40
62575;DHT22;53112;45.602;11.904;2023-03-01T06:43:21;8.90;47.20
62575;DHT22;53112;45.602;11.904;2023-03-01T06:45:46;8.90;47.30
62575;DHT22;53112;45.602;11.904;2023-03-01T06:48:12;9.00;47.20
62575;DHT22;53112;45.602;11.904;2023-03-01T06:50:38;9.20;47.00
62575;DHT22;53112;45.602;11.904;2023-03-01T06:53:04;9.30;47.40
62575;DHT22;53112;45.602;11.904;2023-03-01T06:55:30;9.30;47.30
62575;DHT22;53112;45.602;11.904;2023-03-01T06:57:59;9.20;47.30
62575;DHT22;53112;45.602;11.904;2023-03-01T07:00:26;9.40;47.10
62575;DHT22;53112;45.602;11.904;2023-03-01T07:02:53;9.60;47.20
62575;DHT22;53112;45.602;11.904;2023-03-01T07:05:19;9.60;47.00
62575;DHT22;53112;45.602;11.904;2023-03-01T07:10:15;9.70;47.30
62575;DHT22;53112;45.602;11.904;2023-03-01T07:12:40;9.70;47.10
62575;DHT22;53112;45.602;11.904;2023-03-01T07:15:09;9.60;47.90
62575;DHT22;53112;45.602;11.904;2023-03-01T07:17:36;9.70;47.50
62575;DHT22;53112;45.602;11.904;2023-03-01T07:20:01;9.90;46.90
62575;DHT22;53112;45.602;11.904;2023-03-01T07:22:27;10.10;45.70
62575;DHT22;53112;45.602;11.904;2023-03-01T07:24:53;10.20;45.30
62575;DHT22;53112;45.602;11.904;2023-03-01T07:27:19;10.50;45.00
62575;DHT22;53112;45.602;11.904;2023-03-01T07:29:45;10.60;44.00
62575;DHT22;53112;45.602;11.904;2023-03-01T07:32:11;10.60;44.00
62575;DHT22;53112;45.602;11.904;2023-03-01T07:34:37;10.50;44.20
62575;DHT22;53112;45.602;11.904;2023-03-01T07:37:03;10.50;44.70
62575;DHT22;53112;45.602;11.904;2023-03-01T07:39:34;10.70;43.70
62575;DHT22;53112;45.602;11.904;2023-03-01T07:42:00;10.60;43.70
62575;DHT22;53112;45.602;11.904;2023-03-01T07:44:26;10.70;44.50
62575;DHT22;53112;45.602;11.904;2023-03-01T07:46:51;10.90;43.40
62575;DHT22;53112;45.602;11.904;2023-03-01T07:49:22;11.10;43.20
62575;DHT22;53112;45.602;11.904;2023-03-01T07:51:48;11.10;42.10
62575;DHT22;53112;45.602;11.904;2023-03-01T07:54:13;11.20;42.40
62575;DHT22;53112;45.602;11.904;2023-03-01T07:56:39;11.20;42.70
62575;DHT22;53112;45.602;11.904;2023-03-01T07:59:06;11.40;42.50
62575;DHT22;53112;45.602;11.904;2023-03-01T08:01:32;11.50;42.30
62575;DHT22;53112;45.602;11.904;2023-03-01T08:03:57;11.50;42.00
62575;DHT22;53112;45.602;11.904;2023-03-01T08:06:23;11.50;42.70
62575;DHT22;53112;45.602;11.904;2023-03-01T08:08:49;11.50;42.50
62575;DHT22;53112;45.602;11.904;2023-03-01T08:11:15;11.70;42.10
62575;DHT22;53112;45.602;11.904;2023-03-01T08:13:42;11.90;41.90
62575;DHT22;53112;45.602;11.904;2023-03-01T08:16:13;12.10;42.70
62575;DHT22;53112;45.602;11.904;2023-03-01T08:18:40;12.00;42.10
62575;DHT22;53112;45.602;11.904;2023-03-01T08:21:08;12.10;41.80
62575;DHT22;53112;45.602;11.904;2023-03-01T08:23:34;12.10;41.40
62575;DHT22;53112;45.602;11.904;2023-03-01T08:28:30;12.10;41.80
62575;DHT22;53112;45.602;11.904;2023-03-01T08:30:56;12.20;41.80
62575;DHT22;53112;45.602;11.904;2023-03-01T08:33:22;12.10;41.10
62575;DHT22;53112;45.602;11.904;2023-03-01T08:35:48;12.20;40.90
62575;DHT22;53112;45.602;11.904;2023-03-01T08:38:13;12.10;41.10
62575;DHT22;53112;45.602;11.904;2023-03-01T08:40:39;12.40;41.20
62575;DHT22;53112;45.602;11.904;2023-03-01T08:43:05;12.40;40.70
62575;DHT22;53112;45.602;11.904;2023-03-01T08:45:31;12.60;40.50
62575;DHT22;53112;45.602;11.904;2023-03-01T08:47:57;12.80;40.30
62575;DHT22;53112;45.602;11.904;2023-03-01T08:50:23;13.10;40.00
62575;DHT22;53112;45.602;11.904;2023-03-01T08:52:50;13.20;39.30
62575;DHT22;53112;45.602;11.904;2023-03-01T08:55:16;13.20;39.30
62575;DHT22;53112;45.602;11.904;2023-03-01T08:57:43;13.30;39.80
62575;DHT22;53112;45.602;11.904;2023-03-01T09:00:10;13.50;38.80
62575;DHT22;53112;45.602;11.904;2023-03-01T09:02:40;13.80;38.30
62575;DHT22;53112;45.602;11.904;2023-03-01T09:05:06;14.10;38.30
62575;DHT22;53112;45.602;11.904;2023-03-01T09:07:32;14.30;37.40
62575;DHT22;53112;45.602;11.904;2023-03-01T09:09:59;14.70;37.10
62575;DHT22;53112;45.602;11.904;2023-03-01T09:12:25;15.10;36.40
62575;DHT22;53112;45.602;11.904;2023-03-01T09:14:51;15.50;35.10
62575;DHT22;53112;45.602;11.904;2023-03-01T09:17:17;15.80;35.40
62575;DHT22;53112;45.602;11.904;2023-03-01T09:19:42;16.20;34.30
62575;DHT22;53112;45.602;11.904;2023-03-01T09:22:08;17.10;33.70
62575;DHT22;53112;45.602;11.904;2023-03-01T09:24:34;17.80;31.50
62575;DHT22;53112;45.602;11.904;2023-03-01T09:27:00;17.80;31.20
62575;DHT22;53112;45.602;11.904;2023-03-01T09:29:26;17.40;32.10
62575;DHT22;53112;45.602;11.904;2023-03-01T09:31:52;17.10;33.10
62575;DHT22;53112;45.602;11.904;2023-03-01T09:34:21;17.10;32.50
62575;DHT22;53112;45.602;11.904;2023-03-01T09:36:57;17.70;32.10
62575;DHT22;53112;45.602;11.904;2023-03-01T09:39:23;17.10;32.70
62575;DHT22;53112;45.602;11.904;2023-03-01T09:41:59;17.30;32.10
62575;DHT22;53112;45.602;11.904;2023-03-01T09:44:43;17.20;32.60
62575;DHT22;53112;45.602;11.904;2023-03-01T09:47:23;17.00;34.80
62575;DHT22;53112;45.602;11.904;2023-03-01T09:50:12;17.50;32.50
62575;DHT22;53112;45.602;11.904;2023-03-01T09:55:27;17.40;32.20
62575;DHT22;53112;45.602;11.904;2023-03-01T10:00:50;17.00;32.90
62575;DHT22;53112;45.602;11.904;2023-03-01T10:05:53;17.40;33.20
62575;DHT22;53112;45.602;11.904;2023-03-01T10:08:46;17.60;32.20
62575;DHT22;53112;45.602;11.904;2023-03-01T10:11:26;17.60;32.70
62575;DHT22;53112;45.602;11.904;2023-03-01T10:22:04;17.50;34.10
62575;DHT22;53112;45.602;11.904;2023-03-01T10:24:34;17.40;33.30
62575;DHT22;53112;45.602;11.904;2023-03-01T10:27:06;17.10;34.60
62575;DHT22;53112;45.602;11.904;2023-03-01T10:30:05;16.90;34.80
62575;DHT22;53112;45.602;11.904;2023-03-01T10:32:28;17.10;34.50
62575;DHT22;53112;45.602;11.904;2023-03-01T10:34:54;16.60;33.40
62575;DHT22;53112;45.602;11.904;2023-03-01T10:37:21;16.70;32.90
62575;DHT22;53112;45.602;11.904;2023-03-01T10:40:09;16.80;33.00
62575;DHT22;53112;45.602;11.904;2023-03-01T10:42:40;16.70;33.60
62575;DHT22;53112;45.602;11.904;2023-03-01T10:47:37;16.60;33.20
62575;DHT22;53112;45.602;11.904;2023-03-01T10:50:05;16.70;35.70
62575;DHT22;53112;45.602;11.904;2023-03-01T10:52:59;17.00;35.30
62575;DHT22;53112;45.602;11.904;2023-03-01T10:55:37;17.00;35.00
62575;DHT22;53112;45.602;11.904;2023-03-01T10:58:21;16.80;35.60
62575;DHT22;53112;45.602;11.904;2023-03-01T11:00:52;16.00;35.90
62575;DHT22;53112;45.602;11.904;2023-03-01T11:08:42;14.70;37.30
62575;DHT22;53112;45.602;11.904;2023-03-01T11:14:00;14.50;37.20
62575;DHT22;53112;45.602;11.904;2023-03-01T11:16:40;14.50;38.10
62575;DHT22;53112;45.602;11.904;2023-03-01T11:24:12;14.50;37.10
62575;DHT22;53112;45.602;11.904;2023-03-01T11:26:56;14.50;37.10
62575;DHT22;53112;45.602;11.904;2023-03-01T11:29:42;14.40;38.30
62575;DHT22;53112;45.602;11.904;2023-03-01T11:32:13;14.40;36.80
62575;DHT22;53112;45.602;11.904;2023-03-01T11:37:58;14.40;37.00
62575;DHT22;53112;45.602;11.904;2023-03-01T11:40:40;14.60;37.80
62575;DHT22;53112;45.602;11.904;2023-03-01T11:43:22;14.40;37.40
62575;DHT22;53112;45.602;11.904;2023-03-01T11:45:58;14.50;38.20
62575;DHT22;53112;45.602;11.904;2023-03-01T11:59:59;13.30;39.80
62575;DHT22;53112;45.602;11.904;2023-03-01T12:14:36;13.10;40.10
62575;DHT22;53112;45.602;11.904;2023-03-01T12:22:17;13.10;40.00
62575;DHT22;53112;45.602;11.904;2023-03-01T12:39:05;12.80;40.60
62575;DHT22;53112;45.602;11.904;2023-03-01T12:44:22;12.60;40.70
62575;DHT22;53112;45.602;11.904;2023-03-01T12:47:11;12.50;41.60
62575;DHT22;53112;45.602;11.904;2023-03-01T12:49:59;12.60;41.70
62575;DHT22;53112;45.602;11.904;2023-03-01T12:52:41;12.50;42.10
62575;DHT22;53112;45.602;11.904;2023-03-01T12:55:29;12.80;41.40
62575;DHT22;53112;45.602;11.904;2023-03-01T12:58:13;12.60;41.80
62575;DHT22;53112;45.602;11.904;2023-03-01T13:09:19;12.60;44.80
62575;DHT22;53112;45.602;11.904;2023-03-01T13:11:49;12.50;47.40
62575;DHT22;53112;45.602;11.904;2023-03-01T13:16:52;12.40;48.20
62575;DHT22;53112;45.602;11.904;2023-03-01T13:19:21;12.40;47.70
62575;DHT22;53112;45.602;11.904;2023-03-01T13:21:49;12.30;48.10
62575;DHT22;53112;45.602;11.904;2023-03-01T13:24:39;12.40;48.30
62575;DHT22;53112;45.602;11.904;2023-03-01T13:32:30;12.50;47.40
62575;DHT22;53112;45.602;11.904;2023-03-01T13:37:45;12.70;47.00
62575;DHT22;53112;45.602;11.904;2023-03-01T13:42:47;12.60;45.30
62575;DHT22;53112;45.602;11.904;2023-03-01T13:45:38;12.50;44.90
62575;DHT22;53112;45.602;11.904;2023-03-01T13:48:26;12.60;45.70
62575;DHT22;53112;45.602;11.904;2023-03-01T13:50:58;12.30;45.20
62575;DHT22;53112;45.602;11.904;2023-03-01T13:53:35;12.40;46.30
62575;DHT22;53112;45.602;11.904;2023-03-01T13:56:08;12.40;44.10
62575;DHT22;53112;45.602;11.904;2023-03-01T13:58:51;12.60;43.80
62575;DHT22;53112;45.602;11.904;2023-03-01T14:01:25;12.70;45.40
62575;DHT22;53112;45.602;11.904;2023-03-01T14:03:52;12.80;45.10
62575;DHT22;53112;45.602;11.904;2023-03-01T14:06:28;12.90;44.90
62575;DHT22;53112;45.602;11.904;2023-03-01T14:19:47;13.40;44.70
62575;DHT22;53112;45.602;11.904;2023-03-01T14:22:28;13.40;45.30
62575;DHT22;53112;45.602;11.904;2023-03-01T14:24:59;13.30;45.40
62575;DHT22;53112;45.602;11.904;2023-03-01T14:27:32;13.20;46.00
62575;DHT22;53112;45.602;11.904;2023-03-01T14:30:10;13.20;45.50
62575;DHT22;53112;45.602;11.904;2023-03-01T14:32:38;13.20;44.90
62575;DHT22;53112;45.602;11.904;2023-03-01T14:35:20;13.30;44.30
62575;DHT22;53112;45.602;11.904;2023-03-01T14:37:47;13.30;44.10
62575;DHT22;53112;45.602;11.904;2023-03-01T14:40:34;13.30;43.70
62575;DHT22;53112;45.602;11.904;2023-03-01T14:43:09;13.20;45.00
62575;DHT22;53112;45.602;11.904;2023-03-01T14:45:35;13.10;45.00
62575;DHT22;53112;45.602;11.904;2023-03-01T14:48:03;13.10;45.60
62575;DHT22;53112;45.602;11.904;2023-03-01T14:50:34;13.10;45.40
62575;DHT22;53112;45.602;11.904;2023-03-01T14:53:06;13.00;44.80
62575;DHT22;53112;45.602;11.904;2023-03-01T14:55:45;13.10;44.40
62575;DHT22;53112;45.602;11.904;2023-03-01T14:58:15;12.90;44.70
62575;DHT22;53112;45.602;11.904;2023-03-01T15:01:10;13.00;44.00
62575;DHT22;53112;45.602;11.904;2023-03-01T15:03:42;13.00;43.90
62575;DHT22;53112;45.602;11.904;2023-03-01T15:06:10;13.10;43.20
62575;DHT22;53112;45.602;11.904;2023-03-01T15:08:42;13.30;42.90
62575;DHT22;53112;45.602;11.904;2023-03-01T15:13:42;13.50;42.90
62575;DHT22;53112;45.602;11.904;2023-03-01T15:16:11;13.40;42.10
62575;DHT22;53112;45.602;11.904;2023-03-01T15:18:48;13.40;42.10
62575;DHT22;53112;45.602;11.904;2023-03-01T15:23:49;13.40;42.00
62575;DHT22;53112;45.602;11.904;2023-03-01T15:26:24;13.40;42.70
62575;DHT22;53112;45.602;11.904;2023-03-01T15:28:52;13.40;42.30
62575;DHT22;53112;45.602;11.904;2023-03-01T15:31:28;13.40;43.00
62575;DHT22;53112;45.602;11.904;2023-03-01T15:34:10;13.50;42.70
62575;DHT22;53112;45.602;11.904;2023-03-01T15:36:44;13.60;43.60
62575;DHT22;53112;45.602;11.904;2023-03-01T15:39:36;13.30;43.00
62575;DHT22;53112;45.602;11.904;2023-03-01T15:47:46;13.30;43.10
62575;DHT22;53112;45.602;11.904;2023-03-01T15:50:28;13.20;43.60
62575;DHT22;53112;45.602;11.904;2023-03-01T15:52:55;13.10;43.60
62575;DHT22;53112;45.602;11.904;2023-03-01T15:55:25;12.90;43.90
62575;DHT22;53112;45.602;11.904;2023-03-01T16:00:26;12.70;45.10
62575;DHT22;53112;45.602;11.904;2023-03-01T16:02:52;12.60;46.40
62575;DHT22;53112;45.602;11.904;2023-03-01T16:07:43;12.10;49.70
62575;DHT22;53112;45.602;11.904;2023-03-01T16:10:09;11.80;52.10
62575;DHT22;53112;45.602;11.904;2023-03-01T16:12:35;11.70;52.50
62575;DHT22;53112;45.602;11.904;2023-03-01T16:15:01;11.50;53.40
62575;DHT22;53112;45.602;11.904;2023-03-01T16:17:27;11.60;54.50
62575;DHT22;53112;45.602;11.904;2023-03-01T16:19:53;11.40;55.70
62575;DHT22;53112;45.602;11.904;2023-03-01T16:22:19;11.10;57.10
62575;DHT22;53112;45.602;11.904;2023-03-01T16:24:50;11.20;58.30
62575;DHT22;53112;45.602;11.904;2023-03-01T16:27:16;10.90;58.70
62575;DHT22;53112;45.602;11.904;2023-03-01T16:29:42;10.90;58.90
62575;DHT22;53112;45.602;11.904;2023-03-01T16:32:07;11.00;60.20
62575;DHT22;53112;45.602;11.904;2023-03-01T16:34:33;11.00;59.80
62575;DHT22;53112;45.602;11.904;2023-03-01T16:36:59;10.90;60.10
62575;DHT22;53112;45.602;11.904;2023-03-01T16:39:25;10.80;60.60
62575;DHT22;53112;45.602;11.904;2023-03-01T16:41:51;10.70;61.10
62575;DHT22;53112;45.602;11.904;2023-03-01T16:44:17;10.80;61.10
62575;DHT22;53112;45.602;11.904;2023-03-01T16:46:42;10.80;60.90
62575;DHT22;53112;45.602;11.904;2023-03-01T16:49:09;10.80;61.00
62575;DHT22;53112;45.602;11.904;2023-03-01T16:51:35;10.60;60.70
62575;DHT22;53112;45.602;11.904;2023-03-01T16:54:01;10.50;61.50
62575;DHT22;53112;45.602;11.904;2023-03-01T16:56:29;10.50;61.40
62575;DHT22;53112;45.602;11.904;2023-03-01T16:58:56;10.50;61.90
62575;DHT22;53112;45.602;11.904;2023-03-01T17:01:25;10.40;61.80
62575;DHT22;53112;45.602;11.904;2023-03-01T17:03:51;10.60;62.20
62575;DHT22;53112;45.602;11.904;2023-03-01T17:06:20;10.50;61.50
62575;DHT22;53112;45.602;11.904;2023-03-01T17:08:47;10.50;62.10
62575;DHT22;53112;45.602;11.904;2023-03-01T17:11:16;10.40;62.10
62575;DHT22;53112;45.602;11.904;2023-03-01T17:13:43;10.40;62.10
62575;DHT22;53112;45.602;11.904;2023-03-01T17:16:11;10.40;62.00
62575;DHT22;53112;45.602;11.904;2023-03-01T17:18:37;10.10;62.30
62575;DHT22;53112;45.602;11.904;2023-03-01T17:21:04;10.10;63.50
62575;DHT22;53112;45.602;11.904;2023-03-01T17:23:30;10.00;63.50
62575;DHT22;53112;45.602;11.904;2023-03-01T17:25:56;9.80;64.40
62575;DHT22;53112;45.602;11.904;2023-03-01T17:28:27;9.90;64.60
62575;DHT22;53112;45.602;11.904;2023-03-01T17:30:53;9.80;63.90
62575;DHT22;53112;45.602;11.904;2023-03-01T17:33:20;9.80;64.00
62575;DHT22;53112;45.602;11.904;2023-03-01T17:35:46;9.80;64.40
62575;DHT22;53112;45.602;11.904;2023-03-01T17:38:13;9.70;63.50
62575;DHT22;53112;45.602;11.904;2023-03-01T17:40:42;9.80;64.20
62575;DHT22;53112;45.602;11.904;2023-03-01T17:43:12;9.70;63.10
62575;DHT22;53112;45.602;11.904;2023-03-01T17:45:38;9.90;63.50
62575;DHT22;53112;45.602;11.904;2023-03-01T17:48:05;9.70;64.20
62575;DHT22;53112;45.602;11.904;2023-03-01T17:50:32;9.70;64.30
62575;DHT22;53112;45.602;11.904;2023-03-01T17:52:59;9.70;65.00
62575;DHT22;53112;45.602;11.904;2023-03-01T17:55:24;9.60;65.30
62575;DHT22;53112;45.602;11.904;2023-03-01T17:57:50;9.70;65.50
62575;DHT22;53112;45.602;11.904;2023-03-01T18:00:16;9.60;65.50
62575;DHT22;53112;45.602;11.904;2023-03-01T18:02:43;9.80;66.00